Latest Coastal Weather Observations for Cooktown

IDQ60701

Issued at 8:22 am EST Sunday 28 August 2016 (issued every 10 minutes, with the page automatically refreshed every 10 minutes)

About coastal observations | Map of coastal stations | Coastal observations for QLD | Marine services | Other Formats
Station Details ID: 031209 Name: COOKTOWN AIRPORT Lat: -15.45 Lon: 145.19 Height: 4.8 m
Data from the previous 72 hours. | See also: Recent months at Cooktown
Date/Time
EST
Temp
°C
Wind Pressure Rain since
9am
mm
Weather Cloud Vis
km
Sea
Height
m
Swell
Dir  Spd
kts
Gust
kts
hPa Trend Height
m
Period
s
Dir
28/08:00am 23.3 SE 12 20 1019.9 - 0.0 - Partly cloudy 10 - - - -
28/07:30am 22.7 SE 12 19 1019.6 - 0.0 - Partly cloudy 10 - - - -
28/07:00am 22.4 SE 12 19 1019.1 - 0.0 - Partly cloudy 10 - - - -
28/06:30am 21.5 SE 9 16 1018.6 - 0.0 - Partly cloudy 10 - - - -
28/06:00am 21.2 SE 8 14 1018.2 - 0.0 - Mostly cloudy 10 - - - -
28/05:30am 21.4 SE 8 15 1017.9 - 0.0 - Partly cloudy 10 - - - -
28/05:00am 21.5 SE 11 20 1017.3 - 0.0 - Partly cloudy 10 - - - -
28/04:30am 21.5 SE 9 15 1016.9 - 0.0 - Partly cloudy 10 - - - -
28/04:00am 21.6 SE 10 18 1017.0 - 0.0 - Partly cloudy 10 - - - -
28/03:30am 21.5 SE 9 12 1017.0 - 0.0 - Partly cloudy 10 - - - -
28/03:00am 21.5 SE 9 16 1017.1 - 0.0 - Cloudy 10 - - - -
28/02:30am 21.5 SE 9 15 1017.1 - 0.0 - Partly cloudy 10 - - - -
28/02:00am 21.5 SE 9 14 1017.1 - 0.0 - Partly cloudy 10 - - - -
28/01:30am 21.8 SE 11 19 1017.3 - 0.0 - Partly cloudy 10 - - - -
28/01:00am 21.8 SE 9 16 1017.6 - 0.0 - Partly cloudy 10 - - - -
28/12:30am 21.7 SE 10 14 1017.7 - 0.0 - Partly cloudy 10 - - - -
28/12:00am 22.1 SE 11 19 1017.9 - 0.0 - Cloudy 10 - - - -
 
Date/Time
EST
Temp
°C
Wind Pressure Rain since
9am
mm
Weather Cloud Vis
km
Sea
Height
m
Swell
Dir  Spd
kts
Gust
kts
hPa Trend Height
m
Period
s
Dir
27/11:30pm 21.9 SE 11 18 1018.1 - 0.0 - Partly cloudy 10 - - - -
27/11:00pm 21.8 SE 12 18 1018.4 - 0.0 - Partly cloudy 10 - - - -
27/10:30pm 21.7 SE 11 16 1018.5 - 0.0 - Partly cloudy 10 - - - -
27/10:00pm 21.9 SE 11 18 1018.5 - 0.0 - Partly cloudy 10 - - - -
27/09:30pm 21.7 SE 11 19 1018.5 - 0.0 - Partly cloudy 10 - - - -
27/09:00pm 21.8 SE 12 19 1018.6 - 0.0 - Mostly clear 10 - - - -
27/08:30pm 21.9 SE 11 20 1018.5 - 0.0 - - 10 - - - -
27/08:00pm 21.6 SE 10 16 1018.2 - 0.0 - - 10 - - - -
27/07:30pm 21.6 SE 10 17 1018.0 - 0.0 - - 10 - - - -
27/07:00pm 21.7 SE 12 18 1017.6 - 0.0 - - 10 - - - -
27/06:30pm 21.7 SE 13 22 1017.4 - 0.0 - - 10 - - - -
27/06:00pm 21.8 SE 12 19 1017.3 - 0.0 - - 10 - - - -
27/05:30pm 22.3 ESE 11 17 1017.2 - 0.0 - Partly cloudy 10 - - - -
27/05:00pm 22.6 ESE 13 19 1017.1 - 0.0 - - 10 - - - -
27/04:30pm 22.7 SE 12 22 1016.7 - 0.0 - Partly cloudy 10 - - - -
27/04:00pm 23.0 SE 14 20 1016.2 - 0.0 - Cloudy 10 - - - -
27/03:30pm 23.5 SE 13 21 1016.1 - 0.0 - Cloudy 10 - - - -
27/03:00pm 24.4 SE 13 22 1016.0 - 0.0 - Mostly cloudy 10 - - - -
27/02:30pm 24.7 ESE 16 24 1016.1 - 0.0 - Partly cloudy 10 - - - -
27/02:16pm 24.5 ESE 15 25 1016.1 - 0.0 - Partly cloudy 10 - - - -
27/02:00pm 25.5 SE 14 28 1016.2 - 0.0 - - 10 - - - -
27/01:31pm 24.7 SE 16 27 1016.5 - 0.0 - - 10 - - - -
27/01:30pm 25.0 SE 16 24 1016.6 - 0.0 - - 10 - - - -
27/01:13pm 24.9 SE 16 26 1016.7 - 0.0 - - 10 - - - -
27/01:00pm 24.9 SE 16 22 1016.9 - 0.0 - - 10 - - - -
27/12:30pm 25.4 SE 16 25 1017.3 - 0.0 - - 10 - - - -
27/12:22pm 24.8 ESE 15 25 1017.4 - 0.0 - Partly cloudy 10 - - - -
27/12:00pm 25.2 SE 14 23 1017.6 - 0.0 - Mostly clear 10 - - - -
27/11:36am 24.6 SE 15 27 1017.8 - 0.0 - - 10 - - - -
27/11:30am 24.4 SE 15 21 1017.8 - 0.0 - - 10 - - - -
27/11:00am 24.8 SE 15 21 1018.3 - 0.0 - - 10 - - - -
27/10:30am 24.3 SE 14 21 1018.6 - 0.0 - - 10 - - - -
27/10:00am 23.5 SE 13 20 1018.7 - 0.0 - Partly cloudy 10 - - - -
27/09:30am 23.8 SE 14 24 1018.8 - 0.0 - Partly cloudy 10 - - - -
27/09:00am 23.6 ESE 15 24 1018.5 R 0.0 Fine Mostly clear 40 - - - -
27/08:30am 23.5 SE 12 19 1018.3 - 0.0 - - 10 - - - -
27/08:00am 23.3 SE 11 20 1018.0 - 0.0 - - 10 - - - -
27/07:30am 22.8 SE 11 18 1017.6 - 0.0 - - 10 - - - -
27/07:00am 22.4 SE 10 16 1017.2 - 0.0 - - 10 - - - -
27/06:30am 22.3 SE 11 18 1016.9 - 0.0 - Partly cloudy 10 - - - -
27/06:00am 22.5 SE 11 17 1016.5 - 0.0 - Mostly cloudy 10 - - - -
27/05:30am 22.7 SE 12 22 1016.2 - 0.0 - Partly cloudy 10 - - - -
27/05:00am 22.9 SE 10 16 1015.8 - 0.0 - Partly cloudy 10 - - - -
27/04:30am 22.3 SE 7 11 1015.7 - 0.0 - Partly cloudy 10 - - - -
27/04:00am 22.4 SE 7 11 1015.6 - 0.0 - Partly cloudy 10 - - - -
27/03:30am 22.5 SE 7 11 1015.7 - 0.0 - Partly cloudy 10 - - - -
27/03:00am 22.6 SE 8 12 1015.4 - 0.0 - Mostly cloudy 10 - - - -
27/02:30am 22.9 SE 7 11 1015.6 - 0.0 - Partly cloudy 10 - - - -
27/02:00am 23.2 SE 7 13 1015.6 - 0.0 - Partly cloudy 10 - - - -
27/01:30am 23.3 SE 8 14 1015.6 - 0.0 - Partly cloudy 10 - - - -
27/01:00am 23.3 SE 8 12 1016.0 - 0.0 - Partly cloudy 10 - - - -
27/12:30am 23.4 ESE 7 12 1016.3 - 0.0 - Partly cloudy 10 - - - -
27/12:00am 23.6 ESE 8 14 1016.2 - 0.0 - Cloudy 10 - - - -
 
Date/Time
EST
Temp
°C
Wind Pressure Rain since
9am
mm
Weather Cloud Vis
km
Sea
Height
m
Swell
Dir  Spd
kts
Gust
kts
hPa Trend Height
m
Period
s
Dir
26/11:35pm 23.7 SE 9 14 1016.1 - 0.0 - Partly cloudy 10 - - - -
26/11:30pm 23.8 SE 8 14 1016.1 - 0.0 - Partly cloudy 10 - - - -
26/11:15pm 23.8 SE 8 13 1016.1 - 0.0 - Partly cloudy 10 - - - -
26/11:00pm 23.9 SE 9 13 1016.0 - 0.0 - Cloudy 10 - - - -
26/10:30pm 23.9 ESE 9 13 1015.9 - 0.0 - Partly cloudy 10 - - - -
26/10:00pm 24.0 ESE 10 15 1015.7 - 0.0 - Partly cloudy 10 - - - -
26/09:41pm 23.9 ESE 8 13 1015.7 - 0.0 - Partly cloudy 10 - - - -
26/09:30pm 23.9 ESE 9 15 1015.6 - 0.0 - Partly cloudy 10 - - - -
26/09:24pm 23.9 ESE 10 15 1015.6 - 0.0 - Partly cloudy 10 - - - -
26/09:00pm 23.8 ESE 9 11 1015.4 - 0.0 - Mostly cloudy 10 - - - -
26/08:30pm 24.0 ESE 10 15 1015.3 - 0.0 - Partly cloudy 10 - - - -
26/08:00pm 24.1 ESE 10 16 1014.9 - 0.0 - Partly cloudy 10 - - - -
26/07:55pm 24.0 ESE 9 14 1014.8 - 0.0 - Partly cloudy 10 - - - -
26/07:30pm 24.0 ESE 9 14 1014.4 - 0.0 - Partly cloudy 10 - - - -
26/07:00pm 23.9 ESE 7 11 1013.8 - 0.0 - Partly cloudy 10 - - - -
26/06:30pm 23.9 ESE 9 17 1013.3 - 0.0 - Partly cloudy 10 - - - -
26/06:00pm 24.3 ESE 11 15 1012.8 - 0.0 - Partly cloudy 10 - - - -
26/05:30pm 24.9 ESE 13 17 1012.5 - 0.0 - Partly cloudy 10 - - - -
26/05:23pm 25.0 ESE 11 16 1012.5 - 0.0 - Partly cloudy 10 - - - -
26/05:03pm 26.0 ESE 11 16 1012.1 - 0.0 - Partly cloudy 10 - - - -
26/05:00pm 26.1 ESE 12 17 1012.0 - 0.0 - Partly cloudy 10 - - - -
26/04:45pm 26.0 ESE 12 18 1012.0 - 0.0 - Partly cloudy 10 - - - -
26/04:30pm 26.3 E 14 19 1011.7 - 0.0 - Partly cloudy 10 - - - -
26/04:00pm 26.8 E 14 21 1011.4 - 0.0 - - 10 - - - -
26/03:30pm 27.0 E 15 19 1011.2 - 0.0 - - 10 - - - -
26/03:00pm 27.4 E 14 17 1011.3 - 0.0 - - 10 - - - -
26/02:30pm 28.4 ENE 11 14 1011.4 - 0.0 - - 10 - - - -
26/02:00pm 28.2 E 11 15 1011.7 - 0.0 - Partly cloudy 10 - - - -
26/01:30pm 28.7 E 10 13 1012.0 - 0.0 - - 10 - - - -
26/01:00pm 28.2 ENE 11 14 1012.4 - 0.0 - - 10 - - - -
26/12:30pm 28.8 E 11 14 1012.8 - 0.0 - - 10 - - - -
26/12:00pm 28.2 E 11 14 1013.3 - 0.0 - - 10 - - - -
26/11:30am 27.9 E 10 13 1013.5 - 0.0 - - 10 - - - -
26/11:00am 27.9 ENE 10 14 1013.9 - 0.0 - - 10 - - - -
26/10:30am 28.2 E 3 7 1014.3 - 0.0 - Partly cloudy 10 - - - -
26/10:00am 27.6 ESE 4 5 1014.6 - 0.0 - - 10 - - - -
26/09:30am 27.3 SSE 3 5 1014.6 - 0.0 - - 10 - - - -
26/09:00am 26.1 SSW 3 5 1014.8 R 0.0 Fine Mostly clear 35 - - - -
26/08:30am 24.9 WSW 3 6 1014.9 - 0.0 - Partly cloudy 10 - - - -
26/08:00am 23.9 WSW 4 5 1014.7 - 0.0 - Partly cloudy 10 - - - -
26/07:30am 22.5 WSW 3 4 1014.5 - 0.0 - Partly cloudy 10 - - - -
26/07:00am 22.0 W 3 5 1014.2 - 0.0 - Partly cloudy 10 - - - -
26/06:30am 21.9 W 4 5 1013.7 - 0.0 - Partly cloudy 10 - - - -
26/06:00am 21.9 WNW 2 5 1013.3 - 0.0 - Cloudy 10 - - - -
26/05:30am 22.0 CALM 0 0 1012.8 - 0.0 - Partly cloudy 10 - - - -
26/05:00am 21.8 CALM 0 0 1012.6 - 0.0 - Partly cloudy 10 - - - -
26/04:30am 21.8 CALM 0 0 1012.4 - 0.0 - Partly cloudy 10 - - - -
26/04:00am 21.5 SW 2 5 1012.4 - 0.0 - - 10 - - - -
26/03:30am 21.9 CALM 0 0 1012.4 - 0.0 - Partly cloudy 10 - - - -
26/03:00am 22.3 CALM 0 0 1012.4 - 0.0 - - 10 - - - -
26/02:30am 22.5 SE 1 3 1012.5 - 0.0 - - 10 - - - -
26/02:00am 23.2 SSE 3 4 1012.6 - 0.0 - Partly cloudy 10 - - - -
26/01:30am 23.0 ESE 5 6 1012.6 - 0.0 - - 10 - - - -
26/01:00am 23.9 ESE 7 10 1012.8 - 0.0 - Partly cloudy 10 - - - -
26/12:30am 24.0 SE 7 11 1013.2 - 0.0 - Partly cloudy 10 - - - -
26/12:00am 24.0 SE 7 13 1013.3 - 0.0 - - 10 - - - -
 
Date/Time
EST
Temp
°C
Wind Pressure Rain since
9am
mm
Weather Cloud Vis
km
Sea
Height
m
Swell
Dir  Spd
kts
Gust
kts
hPa Trend Height
m
Period
s
Dir
25/11:30pm 24.0 ESE 8 11 1013.3 - 0.0 - - 10 - - - -
25/11:00pm 24.0 ESE 7 9 1013.4 - 0.0 - Partly cloudy 10 - - - -
25/10:30pm 24.0 ESE 7 10 1013.1 - 0.0 - Partly cloudy 10 - - - -
25/10:21pm 24.0 ESE 6 9 1013.1 - 0.0 - Partly cloudy 10 - - - -
25/10:00pm 24.1 ESE 9 13 1013.0 - 0.0 - Partly cloudy 10 - - - -
25/09:30pm 24.4 ESE 9 12 1012.9 - 0.0 - Partly cloudy 10 - - - -
25/09:00pm 24.4 ESE 10 15 1012.8 - 0.0 - Partly cloudy 10 - - - -
25/08:30pm 24.6 E 10 15 1012.6 - 0.0 - Partly cloudy 10 - - - -
25/08:15pm 24.5 E 10 16 1012.5 - 0.0 - Partly cloudy 10 - - - -
25/08:00pm 24.6 E 8 13 1012.2 - 0.0 - Partly cloudy 10 - - - -
25/07:30pm 24.7 ESE 7 10 1011.8 - 0.0 - Partly cloudy 10 - - - -
25/07:00pm 24.6 ESE 9 15 1011.3 - 0.0 - Partly cloudy 10 - - - -
25/06:30pm 24.7 ESE 10 15 1010.9 - 0.0 - Partly cloudy 10 - - - -
25/06:00pm 24.8 ESE 10 15 1010.4 - 0.0 - Mostly clear 10 - - - -
25/05:30pm 25.0 ESE 10 14 1010.1 - 0.0 - - 10 - - - -
25/05:00pm 25.7 ESE 12 17 1009.8 - 0.0 - - 10 - - - -
25/04:30pm 26.7 ESE 11 16 1009.3 - 0.0 - - 10 - - - -
25/04:00pm 26.6 ESE 10 14 1009.1 - 0.0 - - 10 - - - -
25/03:30pm 27.6 ESE 10 14 1009.0 - 0.0 - - 10 - - - -
25/03:00pm 27.8 E 10 13 1009.1 - 0.0 - - 10 - - - -
25/02:30pm 27.8 E 12 15 1009.1 - 0.0 - - 10 - - - -
25/02:00pm 28.9 E 10 12 1009.3 - 0.0 - - 10 - - - -
25/01:30pm 29.2 E 9 13 1009.2 - 0.0 - - 10 - - - -
25/01:00pm 29.2 E 10 11 1009.5 - 0.0 - - 10 - - - -
25/12:30pm 29.9 E 6 10 1009.7 - 0.0 - - 10 - - - -
25/12:00pm 30.1 N 5 6 1010.3 - 0.0 - - 10 - - - -
25/11:30am 30.3 NNW 3 7 1010.7 - 0.0 - - 10 - - - -
25/11:00am 29.5 NNW 4 7 1011.2 - 0.0 - - 10 - - - -
25/10:30am 29.1 W 5 7 1011.7 - 0.0 - - 10 - - - -
25/10:00am 28.8 NW 7 10 1011.9 - 0.0 - - 10 - - - -
25/09:30am 27.6 WNW 7 11 1012.0 - 0.0 - - 10 - - - -
25/09:00am 26.4 WNW 7 10 1012.0 - 0.0 - - 10 - - - -
25/08:30am 24.5 W 4 6 1012.2 - 0.0 - - 10 - - - -

Other Formats:

Comma delimited format used in spreadsheet applications
http://www.bom.gov.au/fwo/IDQ60701/IDQ60701.95283.axf

JavaScript Object Notation format (JSON) in row-major order
http://www.bom.gov.au/fwo/IDQ60701/IDQ60701.95283.json